Time;durP1;ratioP1;P1;durP2;ratioP2;P2;SDS_P1;SDS_P2;PMS_P1;PMS_P2;Temp;Humidity;BMP_temperature;BMP_pressure;BME280_temperature;BME280_humidity;BME280_pressure;Samples;Min_cycle;Max_cycle;Signal;HPM_P1;HPM_P2
2022/10/02 00:01:20;;;;;;;6.15;2.10;;;;;;;12.20;89.12;98243.75;4972089;28;20073;-87
2022/10/02 00:03:48;;;;;;;6.72;1.90;;;;;;;12.25;88.97;98247.38;4972416;28;20058;-87
2022/10/02 00:06:24;;;;;;;5.45;2.00;;;;;;;12.26;89.23;98245.53;4952465;28;20050;-86
2022/10/02 00:08:59;;;;;;;7.10;2.42;;;;;;;12.27;88.90;98255.03;4968690;28;20125;-87
2022/10/02 00:11:47;;;;;;;3.72;2.28;;;;;;;12.27;88.84;98265.56;4971800;28;20401;-86
2022/10/02 00:14:18;;;;;;;4.32;1.98;;;;;;;12.29;88.85;98266.16;4967459;28;20043;-86
2022/10/02 00:16:54;;;;;;;4.57;2.08;;;;;;;12.28;88.92;98267.19;4971347;28;20113;-86
2022/10/02 00:19:21;;;;;;;9.40;2.00;;;;;;;12.32;88.63;98266.56;4970825;28;20126;-87
2022/10/02 00:22:19;;;;;;;4.93;2.17;;;;;;;12.41;88.58;98271.59;4971618;28;20131;-87
2022/10/02 00:25:02;;;;;;;3.95;2.22;;;;;;;12.32;88.22;98263.13;4971357;28;20122;-86
2022/10/02 00:27:53;;;;;;;6.93;2.22;;;;;;;12.46;88.20;98280.47;4970069;28;20134;-87
2022/10/02 00:30:19;;;;;;;6.15;2.40;;;;;;;12.38;88.17;98270.19;4970016;28;20370;-86
2022/10/02 00:33:18;;;;;;;8.20;2.50;;;;;;;12.43;88.71;98269.59;4970754;28;20094;-86
2022/10/02 00:36:13;;;;;;;5.85;2.25;;;;;;;12.56;88.38;98275.59;4969268;28;20051;-86
2022/10/02 00:38:55;;;;;;;4.53;2.20;;;;;;;12.52;88.69;98279.66;4969952;28;20118;-87
2022/10/02 00:42:19;;;;;;;5.75;2.35;;;;;;;12.53;88.75;98285.72;4960332;28;20458;-86
2022/10/02 00:45:19;;;;;;;7.97;2.40;;;;;;;12.52;88.89;98290.19;4959679;28;20057;-86
2022/10/02 00:48:19;;;;;;;7.03;2.42;;;;;;;12.48;88.92;98283.72;4969970;28;20126;-86
2022/10/02 00:51:26;;;;;;;5.53;2.60;;;;;;;12.46;88.99;98279.69;4969356;28;20109;-86
2022/10/02 00:54:18;;;;;;;6.68;2.10;;;;;;;12.44;89.26;98279.88;4962879;28;20104;-86
2022/10/02 00:57:16;;;;;;;3.22;2.22;;;;;;;12.42;89.53;98281.94;4970158;28;20397;-86
2022/10/02 01:00:12;;;;;;;8.77;2.75;;;;;;;12.40;89.77;98281.31;4927403;28;20418;-86
2022/10/02 01:03:12;;;;;;;8.38;2.88;;;;;;;12.37;89.81;98286.19;4950879;28;20141;-86
2022/10/02 01:05:39;;;;;;;5.40;2.58;;;;;;;12.23;89.12;98269.59;4968862;28;20125;-87
2022/10/02 01:08:06;;;;;;;11.13;2.90;;;;;;;12.31;90.68;98280.72;4970588;28;20055;-87
2022/10/02 01:10:36;;;;;;;8.20;2.80;;;;;;;12.26;90.99;98285.00;4969612;28;20042;-87
2022/10/02 01:13:04;;;;;;;4.90;2.58;;;;;;;12.25;90.72;98278.13;4969789;28;20042;-86
2022/10/02 01:15:36;;;;;;;7.93;2.90;;;;;;;12.29;90.61;98268.78;4969808;28;20045;-87
2022/10/02 01:18:05;;;;;;;5.03;2.83;;;;;;;12.25;90.69;98264.97;4969613;28;20563;-87
2022/10/02 01:20:38;;;;;;;9.90;2.80;;;;;;;12.25;90.48;98272.88;4969578;28;20039;-87
2022/10/02 01:23:05;;;;;;;5.63;2.60;;;;;;;12.29;90.36;98285.41;4948774;28;20061;-86
2022/10/02 01:25:31;;;;;;;6.75;2.95;;;;;;;12.22;90.56;98289.03;4969580;28;20066;-86
2022/10/02 01:27:58;;;;;;;10.25;3.20;;;;;;;12.19;91.04;98281.56;4970609;28;20042;-86
2022/10/02 01:30:27;;;;;;;6.90;2.85;;;;;;;12.04;91.28;98272.06;4969561;28;20580;-86
2022/10/02 01:32:58;;;;;;;6.90;3.00;;;;;;;12.11;92.17;98298.34;4969663;28;20766;-87
2022/10/02 01:35:31;;;;;;;;;;;;;;;12.12;92.13;98291.28;4968449;28;20101;-86
2022/10/02 01:38:02;;;;;;;;;;;;;;;12.12;92.22;98293.94;4970675;28;19922;-86
2022/10/02 01:40:37;;;;;;;;;;;;;;;12.13;92.29;98298.16;4968164;28;20017;-87
2022/10/02 01:43:10;;;;;;;;;;;;;;;12.18;92.32;98295.75;4967408;28;19968;-87
2022/10/02 01:45:59;;;;;;;;;;;;;;;12.19;91.74;98294.72;4969802;28;20346;-87
2022/10/02 01:48:45;;;;;;;;;;;;;;;12.20;91.74;98301.59;4970227;28;19922;-86
2022/10/02 01:51:40;;;;;;;;;;;;;;;12.26;91.81;98295.50;4969250;28;20421;-86
2022/10/02 01:54:36;;;;;;;;;;;;;;;12.32;91.06;98294.69;4969531;28;19922;-86
2022/10/02 01:57:06;;;;;;;;;;;;;;;12.40;90.57;98298.91;4967559;28;20432;-86
2022/10/02 01:59:57;;;;;;;;;;;;;;;12.43;90.35;98291.44;4969850;28;19930;-87
2022/10/02 02:02:23;;;;;;;;;;;;;;;12.48;90.13;98298.72;4969520;28;19922;-87
2022/10/02 02:05:24;;;;;;;;;;;;;;;12.54;89.59;98297.88;4969486;28;19965;-87
2022/10/02 02:08:05;;;;;;;;;;;;;;;12.59;89.03;98304.16;4962588;28;19922;-86
2022/10/02 02:11:00;;;;;;;;;;;;;;;12.61;88.71;98303.94;4963167;28;20008;-87
2022/10/02 02:13:52;;;;;;;;;;;;;;;12.66;88.57;98303.31;4970242;28;20016;-86
2022/10/02 02:16:26;;;;;;;;;;;;;;;12.67;88.78;98299.66;4968511;28;20830;-87
2022/10/02 02:19:01;;;;;;;;;;;;;;;12.68;88.71;98304.72;4969055;28;20390;-86
2022/10/02 02:21:36;;;;;;;;;;;;;;;12.71;88.61;98312.16;4970070;28;19936;-87
2022/10/02 02:24:09;;;;;;;;;;;;;;;12.72;88.71;98305.91;4972510;28;19926;-87
2022/10/02 02:26:37;;;;;;;;;;;;;;;12.74;88.86;98303.88;4972413;28;19952;-87
2022/10/02 02:29:08;;;;;;;;;;;;;;;12.72;88.52;98300.66;4972407;28;20364;-87
2022/10/02 02:31:42;;;;;;;;;;;;;;;12.77;88.57;98286.84;4957275;28;19926;-88
2022/10/02 02:34:14;;;;;;;;;;;;;;;12.78;88.23;98301.66;4969747;28;20400;-87
2022/10/02 02:36:47;;;;;;;;;;;;;;;12.79;88.24;98301.44;4972845;28;19984;-88
2022/10/02 02:39:27;;;;;;;;;;;;;;;12.81;88.29;98309.13;4973460;28;19972;-87
2022/10/02 02:42:00;;;;;;;;;;;;;;;12.80;87.89;98320.66;4972666;28;19922;-88
2022/10/02 02:44:40;;;;;;;;;;;;;;;12.82;88.16;98318.63;4973255;28;19997;-86
2022/10/02 02:47:18;;;;;;;;;;;;;;;12.81;88.23;98311.75;4972730;28;19984;-87
2022/10/02 02:49:56;;;;;;;;;;;;;;;12.83;88.04;98320.22;4973269;28;19957;-87
2022/10/02 02:52:32;;;;;;;;;;;;;;;12.81;87.82;98324.91;4965855;28;19922;-86
2022/10/02 02:55:14;;;;;;;;;;;;;;;12.80;88.22;98315.41;4973002;28;19953;-86
2022/10/02 02:57:48;;;;;;;;;;;;;;;12.79;88.36;98321.69;4972814;28;19956;-86
2022/10/02 03:00:16;;;;;;;;;;;;;;;12.79;88.16;98316.41;4972406;28;19930;-86
2022/10/02 03:02:43;;;;;;;;;;;;;;;12.79;88.44;98316.41;4970808;28;20468;-87
2022/10/02 03:05:15;;;;;;;;;;;;;;;12.76;88.45;98316.81;4969074;28;19922;-86
2022/10/02 03:08:00;;;;;;;;;;;;;;;12.76;88.56;98311.56;4969139;28;19926;-86
2022/10/02 03:11:03;;;;;;;;;;;;;;;12.76;88.79;98311.56;4973056;28;20338;-87
2022/10/02 03:14:08;;;;;;;;;;;;;;;12.75;88.91;98302.06;4973312;28;19965;-86
2022/10/02 03:16:35;;;;;;;;;;;;;;;12.69;89.12;98306.31;4962625;28;19961;-87
2022/10/02 03:19:02;;;;;;;;;;;;;;;12.71;89.15;98314.00;4972486;28;19922;-87
2022/10/02 03:21:38;;;;;;;;;;;;;;;12.61;89.79;98314.44;4971559;28;20338;-87
2022/10/02 03:24:14;;;;;;;;;;;;;;;12.55;90.18;98308.19;4972973;28;20311;-87
2022/10/02 03:26:53;;;;;;;;;;;;;;;12.61;89.78;98313.66;4972634;28;19960;-86
2022/10/02 03:29:29;;;;;;;;;;;;;;;12.61;90.05;98322.34;4953053;28;19922;-86
2022/10/02 03:31:58;;;;;;;;;;;;;;;12.63;89.77;98316.88;4971673;28;19921;-86
2022/10/02 03:34:25;;;;;;;;;;;;;;;12.61;89.92;98311.81;4971817;28;20419;-86
2022/10/02 03:36:52;;;;;;;;;;;;;;;12.64;89.64;98305.31;4972588;28;19926;-87
2022/10/02 03:39:19;;;;;;;;;;;;;;;12.67;89.47;98307.56;4972955;28;19961;-87
2022/10/02 03:41:52;;;;;;;;;;;;;;;12.71;89.38;98306.09;4971275;28;20037;-87
2022/10/02 03:44:18;;;;;;;;;;;;;;;12.76;89.05;98311.56;4969430;28;19922;-87
2022/10/02 03:46:45;;;;;;;;;;;;;;;12.79;88.46;98322.50;4972023;28;19957;-86
2022/10/02 03:49:11;;;;;;;;;;;;;;;12.82;88.45;98326.50;4970152;28;19933;-87
2022/10/02 03:51:38;;;;;;;;;;;;;;;12.80;88.41;98324.09;4969913;28;19968;-87
2022/10/02 03:54:18;;;;;;;;;;;;;;;12.84;88.27;98324.50;4971871;28;19925;-87
2022/10/02 03:57:03;;;;;;;;;;;;;;;12.86;88.32;98317.19;4969791;28;20345;-87
2022/10/02 03:59:43;;;;;;;;;;;;;;;12.86;88.01;98323.25;4972273;28;19973;-87
2022/10/02 04:02:48;;;;;;;;;;;;;;;12.85;87.72;98320.84;4970062;28;19984;-87
2022/10/02 04:05:18;;;;;;;;;;;;;;;12.81;87.84;98320.44;4969685;28;19926;-86
2022/10/02 04:07:48;;;;;;;;;;;;;;;12.81;88.03;98314.38;4970464;28;19930;-86
2022/10/02 04:10:43;;;;;;;;;;;;;;;12.78;87.92;98304.28;4970654;28;19976;-87
2022/10/02 04:13:26;;;;;;;;;;;;;;;12.77;88.10;98305.28;4970599;28;19954;-86
2022/10/02 04:16:13;;;;;;;;;;;;;;;12.77;88.03;98302.63;4970677;28;19969;-86
2022/10/02 04:18:53;;;;;;;;;;;;;;;12.80;88.06;98295.16;4970421;28;19921;-87
2022/10/02 04:21:33;;;;;;;;;;;;;;;12.81;87.70;98303.84;4971772;28;20476;-86
2022/10/02 04:24:24;;;;;;;;;;;;;;;12.80;87.37;98308.31;4971968;28;19926;-87
2022/10/02 04:27:03;;;;;;;;;;;;;;;12.90;87.33;98313.13;4970186;28;19965;-86
2022/10/02 04:29:41;;;;;;;;;;;;;;;12.91;87.19;98309.47;4970974;28;19969;-87
2022/10/02 04:32:24;;;;;;;;;;;;;;;12.92;87.02;98311.09;4968837;28;19961;-86
2022/10/02 04:34:51;;;;;;;;;;;;;;;12.97;86.77;98310.47;4953044;28;19988;-86
2022/10/02 04:37:36;;;;;;;;;;;;;;;12.97;86.50;98302.56;4970990;28;19977;-87
2022/10/02 04:40:11;;;;;;;;;;;;;;;12.90;86.75;98315.78;4971201;28;20000;-87
2022/10/02 04:42:57;;;;;;;;;;;;;;;12.89;86.91;98318.59;4969940;28;19926;-87
2022/10/02 04:45:40;;;;;;;;;;;;;;;12.88;86.60;98317.78;4970695;28;20012;-86
2022/10/02 04:48:25;;;;;;;;;;;;;;;12.87;86.98;98318.81;4969839;28;20022;-86
2022/10/02 04:51:13;;;;;;;;;;;;;;;12.80;87.09;98323.28;4969184;28;19974;-87
2022/10/02 04:53:57;;;;;;;;;;;;;;;12.85;86.90;98326.13;4967842;28;19926;-86
2022/10/02 04:56:54;;;;;;;;;;;;;;;12.88;86.64;98333.56;4967991;28;20012;-86
2022/10/02 04:59:39;;;;;;;;;;;;;;;12.88;86.66;98330.94;4971323;28;20012;-89
2022/10/02 05:02:17;;;;;;;;;;;;;;;12.90;86.34;98328.94;4969896;28;19930;-86
2022/10/02 05:05:05;;;;;;;;;;;;;;;12.94;86.21;98324.03;4970576;28;19922;-86
2022/10/02 05:07:54;;;;;;;;;;;;;;;12.94;86.18;98324.03;4970088;28;19949;-87
2022/10/02 05:10:39;;;;;;;;;;;;;;;12.94;86.10;98324.84;4960513;28;19928;-86
2022/10/02 05:13:11;;;;;;;;;;;;;;;12.95;86.10;98331.72;4970077;28;19938;-87
2022/10/02 05:15:48;;;;;;;;;;;;;;;12.95;86.18;98331.72;4970832;28;19928;-86
2022/10/02 05:18:15;;;;;;;;;;;;;;;12.99;86.01;98335.56;4969206;28;20000;-87
2022/10/02 05:21:12;;;;;;;;;;;;;;;12.95;85.93;98331.72;4970771;28;19961;-87
2022/10/02 05:24:11;;;;;;;;;;;;;;;12.98;85.60;98319.97;4971263;28;19962;-87
2022/10/02 05:26:49;;;;;;;;;;;;;;;12.98;85.77;98320.78;4968777;28;20012;-87
2022/10/02 05:29:18;;;;;;;;;;;;;;;12.95;86.28;98326.47;4970573;28;19961;-86
2022/10/02 05:31:44;;;;;;;;;;;;;;;12.91;86.33;98325.28;4970231;28;19944;-86
2022/10/02 05:34:32;;;;;;;;;;;;;;;12.96;85.98;98333.38;4970339;28;19965;-89
2022/10/02 05:37:18;;;;;;;;;;;;;;;12.99;85.75;98327.66;4962767;28;20628;-87
2022/10/02 05:39:56;;;;;;;;;;;;;;;12.99;85.58;98326.88;4969330;28;19922;-90
2022/10/02 05:42:37;;;;;;;;;;;;;;;12.99;85.98;98327.66;4967260;28;19926;-87
2022/10/02 05:45:25;;;;;;;;;;;;;;;12.97;86.43;98318.38;4970310;28;19929;-86
2022/10/02 05:48:00;;;;;;;;;;;;;;;12.96;86.25;98312.31;4969181;28;19926;-88
2022/10/02 05:50:33;;;;;;;;;;;;;;;13.00;86.26;98316.13;4948074;28;20012;-88
2022/10/02 05:53:07;;;;;;;;;;;;;;;12.98;85.96;98323.41;4967294;28;20342;-87
2022/10/02 05:55:56;;;;;;;;;;;;;;;12.97;86.21;98329.72;4969017;28;20389;-87
2022/10/02 05:58:35;;;;;;;;;;;;;;;12.99;86.07;98332.94;4971379;28;19922;-88
2022/10/02 06:01:16;;;;;;;;;;;;;;;13.04;85.78;98330.47;4969342;28;19928;-87
2022/10/02 06:03:54;;;;;;;;;;;;;;;13.07;85.78;98329.25;4958322;28;20301;-88
2022/10/02 06:06:33;;;;;;;;;;;;;;;13.08;85.44;98328.25;4953456;28;20370;-87
2022/10/02 06:09:13;;;;;;;;;;;;;;;13.07;85.68;98330.09;4969728;28;19953;-88
2022/10/02 06:12:09;;;;;;;;;;;;;;;13.13;85.30;98317.88;4966862;28;19965;-89
2022/10/02 06:14:41;;;;;;;;;;;;;;;13.13;85.22;98323.97;4971045;28;19922;-87
2022/10/02 06:17:21;;;;;;;;;;;;;;;13.17;85.52;98323.53;4945345;28;19968;-88
2022/10/02 06:20:01;;;;;;;;;;;;;;;13.16;85.54;98327.19;4970755;28;19922;-87
2022/10/02 06:23:00;;;;;;;;;;;;;;;13.20;85.09;98334.47;4967358;28;19959;-87
2022/10/02 06:25:35;;;;;;;;;;;;;;;13.20;85.12;98329.22;4979033;28;19922;-87
2022/10/02 06:28:33;;;;;;;;;;;;;;;13.22;85.09;98339.56;4970485;28;19922;-88
2022/10/02 06:31:09;;;;;;;;;;;;;;;13.21;85.12;98340.56;4960318;28;19922;-87
2022/10/02 06:33:39;;;;;;;;;;;;;;;13.27;85.19;98337.91;4968428;28;19926;-87
2022/10/02 06:36:39;;;;;;;;;;;;;;;13.27;84.56;98334.47;4959341;28;20285;-88
2022/10/02 06:39:25;;;;;;;;;;;;;;;13.32;84.54;98329.38;4968409;28;20325;-89
2022/10/02 06:42:06;;;;;;;;;;;;;;;13.34;84.65;98333.41;4970447;28;20340;-88
2022/10/02 06:44:47;;;;;;;;;;;;;;;13.31;85.13;98340.91;4970053;28;20344;-89
2022/10/02 06:47:36;;;;;;;;;;;;;;;13.32;85.05;98337.28;4952231;28;20370;-91
2022/10/02 06:50:39;;;;;;;;;;;;;;;13.35;85.36;98332.38;4969142;28;19922;-88
2022/10/02 06:53:50;;;;;;;;;;;;;;;13.39;85.02;98343.31;4966498;28;20449;-88
2022/10/02 06:56:46;;;;;;;;;;;;;;;13.38;84.81;98342.50;4967677;28;20378;-86
2022/10/02 06:59:32;;;;;;;;;;;;;;;13.41;85.35;98336.00;4964468;28;20009;-90
2022/10/02 07:02:31;;;;;;;;;;;;;;;13.37;85.47;98330.38;4953638;28;19933;-87
2022/10/02 07:05:17;;;;;;;;;;;;;;;13.41;85.46;98343.09;4968190;28;20432;-87
2022/10/02 07:08:13;;;;;;;;;;;;;;;13.40;85.35;98344.94;4967723;28;20386;-87
2022/10/02 07:11:09;;;;;;;;;;;;;;;13.43;84.95;98347.13;4970931;28;19922;-87
2022/10/02 07:13:57;;;;;;;;;;;;;;;13.49;84.54;98351.53;4955001;28;20444;-87
2022/10/02 07:16:41;;;;;;;;;;;;;;;13.52;84.58;98351.13;4973594;28;20437;-87
2022/10/02 07:19:42;;;;;;;;;;;;;;;13.46;84.51;98346.72;4973294;28;19922;-88
2022/10/02 07:22:23;;;;;;;;;;;;;;;13.50;84.18;98360.28;4970136;28;19967;-89
2022/10/02 07:25:26;;;;;;;;;;;;;;;13.54;84.67;98356.19;4973096;28;19926;-89
2022/10/02 07:28:11;;;;;;;;;;;;;;;13.54;84.40;98354.34;4973756;28;19956;-87
2022/10/02 07:30:52;;;;;;;;;;;;;;;13.58;84.38;98360.81;4973183;28;20294;-88
2022/10/02 07:33:38;;;;;;;;;;;;;;;13.55;85.18;98348.06;4974269;28;20363;-88
2022/10/02 07:36:49;;;;;;;;;;;;;;;13.55;84.94;98353.34;4967269;28;20005;-86
2022/10/02 07:39:25;;;;;;;;;;;;;;;13.49;84.51;98354.19;4927505;28;19926;-88
2022/10/02 07:42:25;;;;;;;;;;;;;;;13.46;85.53;98353.81;4973319;28;20378;-88
2022/10/02 07:45:09;;;;;;;;;;;;;;;13.45;85.83;98353.00;4969291;28;20338;-88
2022/10/02 07:48:10;;;;;;;;;;;;;;;13.45;85.92;98347.75;4973419;28;19922;-87
2022/10/02 07:50:39;;;;;;;;;;;;;;;13.38;85.91;98352.25;4956331;28;19968;-89
2022/10/02 07:53:29;;;;;;;;;;;;;;;13.44;85.75;98356.66;4952640;28;20426;-87
2022/10/02 07:55:59;;;;;;;;;;;;;;;13.44;85.72;98351.41;4967284;28;19945;-89
2022/10/02 07:58:49;;;;;;;;;;;;;;;13.41;85.76;98357.06;4972188;28;19926;-90
2022/10/02 08:01:23;;;;;;;;;;;;;;;13.45;85.60;98357.47;4959594;28;20342;-91
2022/10/02 08:04:01;;;;;;;;;;;;;;;13.42;86.05;98363.94;4963371;28;19922;-89
2022/10/02 08:06:28;;;;;;;;;;;;;;;13.41;85.75;98372.06;4972820;28;19922;-90
2022/10/02 08:09:01;;;;;;;;;;;;;;;13.43;85.95;98368.19;4971901;28;20594;-87
2022/10/02 08:11:37;;;;;;;;;;;;;;;13.42;86.75;98363.94;4973524;28;19922;-88
2022/10/02 08:14:18;;;;;;;;;;;;;;;13.36;86.67;98364.81;4972375;28;20334;-89
2022/10/02 08:16:58;;;;;;;;;;;;;;;13.37;86.78;98369.03;4969572;28;19992;-88
2022/10/02 08:19:38;;;;;;;;;;;;;;;13.31;87.80;98373.34;4965846;28;19933;-87
2022/10/02 08:22:29;;;;;;;;;;;;;;;13.32;88.75;98355.72;4972159;28;19922;-89
2022/10/02 08:25:19;;;;;;;;;;;;;;;13.30;87.97;98363.00;4972524;28;20421;-91
2022/10/02 08:27:57;;;;;;;;;;;;;;;13.29;88.45;98358.75;4959600;28;19926;-88
2022/10/02 08:30:24;;;;;;;;;;;;;;;13.24;89.52;98355.94;4959390;28;19921;-90
2022/10/02 08:32:52;;;;;;;;;;;;;;;13.22;90.39;98358.00;4972958;28;19972;-88
2022/10/02 08:35:20;;;;;;;;;;;;;;;13.20;91.08;98360.81;4973018;28;19922;-89
2022/10/02 08:38:16;;;;;;;;;;;;;;;13.12;91.09;98359.19;4968382;28;19976;-89
2022/10/02 08:40:49;;;;;;;;;;;;;;;13.15;91.95;98362.44;4973234;28;20326;-89
2022/10/02 08:43:33;;;;;;;;;;;;;;;13.16;91.17;98359.59;4954896;28;19933;-89
2022/10/02 08:46:23;;;;;;;;;;;;;;;13.15;92.25;98351.91;4954859;28;20337;-90
2022/10/02 08:49:03;;;;;;;;;;;;;;;13.10;91.18;98355.19;4973086;28;20390;-90
2022/10/02 08:51:54;;;;;;;;;;;;;;;13.09;91.59;98353.56;4972040;28;19922;-92
2022/10/02 08:54:58;;;;;;;;;;;;;;;13.07;92.57;98348.50;4957469;28;19928;-88
2022/10/02 08:57:44;;;;;;;;;;;;;;;13.07;92.28;98352.94;4955960;28;20382;-89
2022/10/02 09:00:30;;;;;;;;;;;;;;;13.11;93.18;98344.41;4972402;28;19941;-89
2022/10/02 09:03:14;;;;;;;;;;;;;;;13.16;92.85;98348.25;4972078;28;19973;-90
2022/10/02 09:05:55;;;;;;;;;;;;;;;13.07;93.21;98345.88;4952130;28;20278;-89
2022/10/02 09:09:03;;;;;;;;;;;;;;;13.07;92.37;98343.25;4968858;28;20575;-91
2022/10/02 09:11:49;;;;;;;;;;;;;;;13.09;93.02;98343.03;4870203;29;19924;-89
2022/10/02 09:14:31;;;;;;;;;;;;;;;13.05;92.97;98342.63;4873520;29;19980;-89
2022/10/02 09:17:42;;;;;;;;;;;;;;;13.01;93.00;98340.63;4945816;28;19922;-88
2022/10/02 09:20:28;;;;;;;;;;;;;;;13.03;92.54;98339.41;4966870;28;19934;-89
2022/10/02 09:23:22;;;;;;;;;;;;;;;13.01;93.54;98349.31;4938312;29;20539;-88
2022/10/02 09:26:17;;;;;;;;;;;;;;;13.01;94.88;98343.25;4971863;28;19957;-86
2022/10/02 09:29:11;;;;;;;;;;;;;;;13.08;94.62;98339.59;4971535;28;19961;-87
2022/10/02 09:31:53;;;;;;;;;;;;;;;13.07;93.49;98347.69;4966651;28;19921;-87
2022/10/02 09:35:08;;;;;;;;;;;;;;;13.03;95.11;98343.88;4968539;28;20414;-86
2022/10/02 09:37:42;;;;;;;;;;;;;;;13.05;94.88;98342.63;4970831;28;19969;-86
2022/10/02 09:40:39;;;;;;;;;;;;;;;13.01;94.53;98346.69;4970312;28;19929;-86
2022/10/02 09:43:49;;;;;;;;;;;;;;;13.01;95.55;98344.06;4968664;28;20017;-88
2022/10/02 09:46:37;;;;;;;;;;;;;;;13.05;95.12;98332.09;4966152;28;19930;-86
2022/10/02 09:49:35;;;;;;;;;;;;;;;13.00;96.49;98350.34;4968926;28;20114;-87
2022/10/02 09:52:20;;;;;;;;;;;;;;;12.95;94.97;98346.72;4966880;28;19922;-87
2022/10/02 09:55:28;;;;;;;;;;;;;;;12.98;95.58;98338.41;4969258;28;19929;-86
2022/10/02 09:58:07;;;;;;;;;;;;;;;12.99;96.05;98343.47;4968671;28;19921;-87
2022/10/02 10:01:13;;;;;;;;;;;;;;;12.90;96.21;98339.47;4967857;28;19922;-87
2022/10/02 10:03:49;;;;;;;;;;;;;;;12.92;96.24;98347.16;4972884;28;19922;-86
2022/10/02 10:06:43;;;;;;;;;;;;;;;12.95;96.63;98347.53;4963058;28;19926;-87
2022/10/02 10:09:48;;;;;;;;;;;;;;;12.98;96.33;98336.59;4970139;28;19929;-86
2022/10/02 10:12:36;;;;;;;;;;;;;;;13.00;94.76;98326.66;4969568;28;19922;-87
2022/10/02 10:15:47;;;;;;;;;;;;;;;13.01;95.70;98320.34;4970690;28;20348;-87
2022/10/02 10:18:32;;;;;;;;;;;;;;;13.19;96.26;98321.50;4965325;28;20296;-90
2022/10/02 10:21:21;;;;;;;;;;;;;;;13.20;95.48;98320.50;4960652;28;20281;-88
2022/10/02 10:24:33;;;;;;;;;;;;;;;13.24;95.39;98324.34;4969023;28;19926;-88
2022/10/02 10:27:12;;;;;;;;;;;;;;;13.29;94.68;98321.88;4936637;28;19922;-88
2022/10/02 10:29:59;;;;;;;;;;;;;;;13.39;94.17;98311.69;4964624;28;19930;-87
2022/10/02 10:32:43;;;;;;;;;;;;;;;13.47;93.12;98315.91;4970163;28;21011;-87
2022/10/02 10:35:30;;;;;;;;;;;;;;;13.54;94.54;98314.03;4970130;28;20393;-87
2022/10/02 10:38:33;;;;;;;;;;;;;;;13.34;94.31;98311.53;4969186;28;19925;-88
2022/10/02 10:41:08;;;;;;;;;;;;;;;13.31;94.27;98309.31;4964504;28;19921;-89
2022/10/02 10:43:54;;;;;;;;;;;;;;;13.28;94.73;98294.75;4969960;28;20330;-88
2022/10/02 10:46:57;;;;;;;;;;;;;;;13.28;94.69;98309.75;4940713;28;19961;-88
2022/10/02 10:50:01;;;;;;;;;;;;;;;13.26;95.05;98322.31;4965161;28;19957;-88
2022/10/02 10:52:46;;;;;;;;;;;;;;;13.28;95.98;98321.09;4963848;28;19949;-88
2022/10/02 10:55:31;;;;;;;;;;;;;;;13.32;95.96;98316.22;4972587;28;19926;-88
2022/10/02 10:58:08;;;;;;;;;;;;;;;13.36;96.16;98317.38;4954862;28;19922;-87
2022/10/02 11:01:12;;;;;;;;;;;;;;;13.39;94.44;98316.97;4972679;28;19922;-89
2022/10/02 11:04:15;;;;;;;;;;;;;;;13.46;94.94;98320.38;4930053;28;19922;-86
2022/10/02 11:07:06;;;;;;;;;;;;;;;13.35;95.31;98321.03;4971153;28;19922;-90
2022/10/02 11:09:54;;;;;;;;;;;;;;;13.40;96.08;98323.84;4973317;28;19929;-89
2022/10/02 11:12:32;;;;;;;;;;;;;;;13.46;95.05;98309.81;4973707;28;19973;-90
2022/10/02 11:15:23;;;;;;;;;;;;;;;13.47;94.39;98311.44;4947103;29;20009;-88
2022/10/02 11:18:07;;;;;;;;;;;;;;;13.53;94.21;98315.84;4966054;28;20541;-89
2022/10/02 11:21:10;;;;;;;;;;;;;;;13.52;93.81;98316.88;4957381;28;19929;-90
2022/10/02 11:23:46;;;;;;;;;;;;;;;13.52;92.82;98314.25;4971003;28;19930;-89
2022/10/02 11:26:42;;;;;;;;;;;;;;;13.54;93.85;98320.09;4972885;28;19921;-89
2022/10/02 11:29:17;;;;;;;;;;;;;;;13.50;93.18;98318.13;4974052;28;19922;-90
2022/10/02 11:32:13;;;;;;;;;;;;;;;13.45;94.19;98316.13;4972155;28;19922;-88
2022/10/02 11:35:18;;;;;;;;;;;;;;;13.36;94.40;98318.19;4970366;28;19953;-88
2022/10/02 11:37:57;;;;;;;;;;;;;;;13.28;94.85;98320.28;4883711;29;19930;-89
2022/10/02 11:40:54;;;;;;;;;;;;;;;13.24;95.61;98325.16;4958823;28;19922;-88
2022/10/02 11:43:50;;;;;;;;;;;;;;;13.18;95.90;98325.94;4959985;28;19922;-89
2022/10/02 11:46:43;;;;;;;;;;;;;;;13.22;95.24;98327.19;4972750;28;20018;-87
2022/10/02 11:49:25;;;;;;;;;;;;;;;13.10;93.96;98334.91;4953245;28;19961;-88
2022/10/02 11:52:21;;;;;;;;;;;;;;;13.11;96.13;98335.72;4960151;28;20315;-88
2022/10/02 11:55:08;;;;;;;;;;;;;;;13.12;96.53;98337.31;4945377;28;20350;-88
2022/10/02 11:57:46;;;;;;;;;;;;;;;13.10;95.95;98327.00;4971086;28;20017;-89
2022/10/02 12:00:31;;;;;;;;;;;;;;;13.17;96.02;98334.88;4973050;28;19922;-87
2022/10/02 12:03:19;;;;;;;;;;;;;;;13.22;96.97;98324.56;4972563;28;19977;-87
2022/10/02 12:05:52;;;;;;;;;;;;;;;13.27;97.20;98318.66;4971394;28;19996;-87
2022/10/02 12:08:33;;;;;;;;;;;;;;;13.28;97.03;98310.53;4968592;28;19932;-87
2022/10/02 12:11:09;;;;;;;;;;;;;;;13.34;96.19;98306.25;4972765;28;19922;-88
2022/10/02 12:14:05;;;;;;;;;;;;;;;13.38;96.49;98302.19;4967776;28;19922;-86
2022/10/02 12:16:37;;;;;;;;;;;;;;;13.32;95.82;98306.47;4969270;28;19922;-89
2022/10/02 12:19:23;;;;;;;;;;;;;;;13.27;95.55;98305.50;4972796;28;19930;-88
2022/10/02 12:28:20;;;;;;;;;;;;;;;13.39;95.98;98295.91;4971341;28;19929;-88
2022/10/02 12:31:04;;;;;;;;;;;;;;;13.41;95.93;98299.13;4965002;28;19926;-88
2022/10/02 12:33:54;;;;;;;;;;;;;;;13.37;95.61;98297.91;4967368;28;20017;-87
2022/10/02 12:36:48;;;;;;;;;;;;;;;13.39;95.68;98290.63;4970468;28;19922;-89
2022/10/02 12:39:29;;;;;;;;;;;;;;;13.41;95.39;98296.47;4954908;28;20278;-88
2022/10/02 12:42:34;;;;;;;;;;;;;;;13.46;95.37;98288.75;4971849;28;19929;-89
2022/10/02 12:45:17;;;;;;;;;;;;;;;13.44;94.86;98293.44;4970962;28;19928;-89
2022/10/02 12:48:35;;;;;;;;;;;;;;;13.48;95.42;98302.50;4973216;28;19922;-89
2022/10/02 12:51:39;;;;;;;;;;;;;;;13.41;96.13;98306.22;4969826;28;20012;-89
2022/10/02 12:54:41;;;;;;;;;;;;;;;13.41;95.64;98309.66;4967225;28;19949;-89
2022/10/02 12:57:08;;;;;;;;;;;;;;;13.41;95.63;98307.03;4952540;28;19922;-89
2022/10/02 12:59:54;;;;;;;;;;;;;;;13.28;96.10;98315.81;4972094;28;19922;-88
2022/10/02 13:03:11;;;;;;;;;;;;;;;13.35;95.94;98315.78;4972133;28;19922;-89
2022/10/02 13:06:03;;;;;;;;;;;;;;;13.27;96.89;98321.28;4970430;28;19968;-88
2022/10/02 13:09:01;;;;;;;;;;;;;;;13.29;96.59;98316.63;4940988;28;19922;-88
2022/10/02 13:11:40;;;;;;;;;;;;;;;13.27;96.13;98314.19;4945191;29;20469;-89
2022/10/02 13:14:14;;;;;;;;;;;;;;;13.21;95.55;98316.88;4953610;29;19922;-89
2022/10/02 13:16:43;;;;;;;;;;;;;;;13.19;97.15;98316.22;4955853;28;19922;-88
2022/10/02 13:19:29;;;;;;;;;;;;;;;13.11;96.19;98318.09;4973726;28;20424;-89
2022/10/02 13:22:30;;;;;;;;;;;;;;;13.19;96.83;98316.22;4971958;28;20012;-89
2022/10/02 13:25:15;;;;;;;;;;;;;;;13.12;98.05;98322.34;4953036;28;19928;-89
2022/10/02 13:28:12;;;;;;;;;;;;;;;13.07;96.50;98313.44;4954714;29;19977;-89
2022/10/02 13:31:01;;;;;;;;;;;;;;;12.97;97.13;98319.19;4965805;28;19949;-91
2022/10/02 13:33:50;;;;;;;;;;;;;;;12.89;97.59;98322.03;4953170;29;19923;-89
2022/10/02 13:36:42;;;;;;;;;;;;;;;12.82;98.89;98305.47;4958180;28;20013;-89
2022/10/02 13:39:21;;;;;;;;;;;;;;;12.81;98.90;98303.84;4971898;28;19922;-90
2022/10/02 13:42:09;;;;;;;;;;;;;;;12.85;100.00;98305.84;4971428;28;20028;-88
2022/10/02 13:44:48;;;;;;;;;;;;;;;12.96;100.00;98304.41;4971959;28;19922;-88
2022/10/02 13:47:39;;;;;;;;;;;;;;;12.99;98.84;98298.69;4968753;28;19922;-89
2022/10/02 13:50:18;;;;;;;;;;;;;;;13.02;98.89;98306.19;4969039;28;19922;-88
2022/10/02 13:53:10;;;;;;;;;;;;;;;13.04;96.86;98296.25;4969534;28;20066;-88
2022/10/02 13:55:46;;;;;;;;;;;;;;;13.07;98.27;98298.47;4972086;28;19953;-89
2022/10/02 13:58:36;;;;;;;;;;;;;;;13.12;98.43;98301.25;4967152;28;19922;-88
2022/10/02 14:01:32;;;;;;;;;;;;;;;13.12;98.28;98296.00;4961103;28;19929;-89
2022/10/02 14:04:19;;;;;;;;;;;;;;;13.18;97.70;98296.19;4915203;29;20419;-88
2022/10/02 14:07:00;;;;;;;;;;;;;;;13.24;97.54;98287.47;4937397;28;20009;-89
2022/10/02 14:09:50;;;;;;;;;;;;;;;13.31;97.73;98293.50;4967132;28;19929;-89
2022/10/02 14:12:52;;;;;;;;;;;;;;;13.29;95.24;98285.00;4969191;28;19932;-88